createdAt,value
2023-03-27T00:01:19.430Z,99.90
2023-03-27T00:03:49.686Z,99.90
2023-03-27T00:06:21.013Z,99.90
2023-03-27T00:08:51.385Z,99.90
2023-03-27T00:11:20.388Z,99.90
2023-03-27T00:13:54.388Z,99.90
2023-03-27T00:16:25.410Z,99.90
2023-03-27T00:18:54.345Z,99.90
2023-03-27T00:21:24.380Z,99.90
2023-03-27T00:23:54.534Z,99.90
2023-03-27T00:26:23.164Z,99.90
2023-03-27T00:28:52.815Z,99.90
2023-03-27T00:31:21.491Z,99.90
2023-03-27T00:33:50.002Z,99.90
2023-03-27T00:36:18.462Z,99.90
2023-03-27T00:38:48.259Z,99.90
2023-03-27T00:41:16.711Z,99.90
2023-03-27T00:43:45.335Z,99.90
2023-03-27T00:46:40.909Z,99.90
2023-03-27T00:49:11.903Z,99.90
2023-03-27T00:51:42.359Z,99.90
2023-03-27T00:54:12.632Z,99.90
2023-03-27T00:56:41.149Z,99.90
2023-03-27T00:59:11.634Z,99.90
2023-03-27T01:01:41.182Z,99.90
2023-03-27T01:04:10.265Z,99.90
2023-03-27T01:06:39.391Z,99.90
2023-03-27T01:09:09.317Z,99.90
2023-03-27T01:11:47.896Z,99.90
2023-03-27T01:14:22.343Z,99.90
2023-03-27T01:17:06.551Z,99.90
2023-03-27T01:20:14.061Z,99.90
2023-03-27T01:23:12.383Z,99.90
2023-03-27T01:25:51.600Z,99.90
2023-03-27T01:28:32.261Z,99.90
2023-03-27T01:31:12.421Z,99.90
2023-03-27T01:34:00.109Z,99.90
2023-03-27T01:36:55.655Z,99.90
2023-03-27T01:39:32.489Z,99.90
2023-03-27T01:42:07.137Z,99.90
2023-03-27T01:44:45.283Z,99.90
2023-03-27T01:47:21.254Z,99.90
2023-03-27T01:49:53.488Z,99.90
2023-03-27T01:52:27.202Z,99.90
2023-03-27T01:55:03.374Z,99.90
2023-03-27T01:57:36.848Z,99.90
2023-03-27T02:00:21.806Z,99.90
2023-03-27T02:02:54.329Z,99.90
2023-03-27T02:05:27.099Z,99.90
2023-03-27T02:08:00.840Z,99.90
2023-03-27T02:10:33.217Z,99.90
2023-03-27T02:13:07.020Z,99.90
2023-03-27T02:15:39.068Z,99.90
2023-03-27T02:18:12.166Z,99.90
2023-03-27T02:20:41.622Z,99.90
2023-03-27T02:23:10.097Z,99.90
2023-03-27T02:25:41.346Z,99.90
2023-03-27T02:28:30.382Z,99.90
2023-03-27T02:31:33.996Z,99.90
2023-03-27T02:34:14.861Z,99.90
2023-03-27T02:36:49.876Z,99.90
2023-03-27T02:39:23.257Z,99.90
2023-03-27T02:41:59.501Z,99.90
2023-03-27T02:44:32.867Z,99.90
2023-03-27T02:47:07.389Z,99.90
2023-03-27T02:49:40.081Z,99.90
2023-03-27T02:52:11.270Z,99.90
2023-03-27T02:54:43.495Z,99.90
2023-03-27T02:57:17.206Z,99.90
2023-03-27T02:59:49.436Z,99.90
2023-03-27T03:02:20.023Z,99.90
2023-03-27T03:04:57.091Z,99.90
2023-03-27T03:07:26.683Z,99.90
2023-03-27T03:09:55.369Z,99.90
2023-03-27T03:12:25.176Z,99.90
2023-03-27T03:14:53.724Z,99.90
2023-03-27T03:17:22.194Z,99.90
2023-03-27T03:19:50.609Z,99.90
2023-03-27T03:22:19.004Z,99.90
2023-03-27T03:24:47.569Z,99.90
2023-03-27T03:27:16.092Z,99.90
2023-03-27T03:29:46.312Z,99.90
2023-03-27T03:32:14.878Z,99.90
2023-03-27T03:34:46.725Z,99.90
2023-03-27T03:37:15.375Z,99.90
2023-03-27T03:39:43.787Z,99.90
2023-03-27T03:42:20.920Z,99.90
2023-03-27T03:44:52.288Z,99.90
2023-03-27T03:47:20.790Z,99.90
2023-03-27T03:49:49.214Z,99.90
2023-03-27T03:52:17.747Z,99.90
2023-03-27T03:54:46.828Z,99.90
2023-03-27T03:57:15.598Z,99.90
2023-03-27T03:59:44.288Z,99.90
2023-03-27T04:02:28.161Z,99.90
2023-03-27T04:04:56.820Z,99.90
2023-03-27T04:07:25.422Z,99.90
2023-03-27T04:09:53.892Z,99.90
2023-03-27T04:12:22.378Z,99.90
2023-03-27T04:14:50.754Z,99.90
2023-03-27T04:17:20.834Z,99.90
2023-03-27T04:19:49.255Z,99.90
2023-03-27T04:22:18.256Z,99.90
2023-03-27T04:24:50.498Z,99.90
2023-03-27T04:27:19.548Z,99.90
2023-03-27T04:29:48.427Z,99.90
2023-03-27T04:32:19.284Z,99.90
2023-03-27T04:34:50.296Z,99.90
2023-03-27T04:37:23.417Z,99.90
2023-03-27T04:39:52.525Z,99.90
2023-03-27T04:42:22.920Z,99.90
2023-03-27T04:44:52.520Z,99.90
2023-03-27T04:47:21.541Z,99.90
2023-03-27T04:49:51.795Z,99.90
2023-03-27T04:52:20.325Z,99.90
2023-03-27T04:54:51.488Z,99.90
2023-03-27T04:57:22.152Z,99.90
2023-03-27T04:59:50.715Z,99.90
2023-03-27T05:02:19.276Z,99.90
2023-03-27T05:04:48.849Z,99.90
2023-03-27T05:07:20.073Z,99.90
2023-03-27T05:09:49.568Z,99.90
2023-03-27T05:12:17.998Z,99.90
2023-03-27T05:14:48.522Z,99.90
2023-03-27T05:17:17.357Z,99.90
2023-03-27T05:19:45.978Z,99.90
2023-03-27T05:22:14.676Z,99.90
2023-03-27T05:24:44.539Z,99.90
2023-03-27T05:27:12.994Z,99.90
2023-03-27T05:29:46.663Z,99.90
2023-03-27T05:32:16.347Z,99.90
2023-03-27T05:34:45.933Z,99.90
2023-03-27T05:37:16.476Z,99.90
2023-03-27T05:39:46.801Z,99.90
2023-03-27T05:42:15.407Z,99.90
2023-03-27T05:44:44.145Z,99.90
2023-03-27T05:47:12.973Z,99.90
2023-03-27T05:49:41.751Z,99.90
2023-03-27T05:52:10.498Z,99.90
2023-03-27T05:54:39.073Z,99.90
2023-03-27T05:57:09.091Z,99.90
2023-03-27T05:59:37.651Z,99.90
2023-03-27T06:02:06.267Z,99.90
2023-03-27T06:04:34.858Z,99.90
2023-03-27T06:07:03.552Z,99.90
2023-03-27T06:09:32.598Z,99.90
2023-03-27T06:12:01.059Z,99.90
2023-03-27T06:14:30.847Z,99.90
2023-03-27T06:16:59.346Z,99.90
2023-03-27T06:19:27.807Z,99.90
2023-03-27T06:21:56.275Z,99.90
2023-03-27T06:24:24.782Z,99.90
2023-03-27T06:26:53.609Z,99.90
2023-03-27T06:29:22.301Z,99.90
2023-03-27T06:31:52.799Z,99.90
2023-03-27T06:34:21.314Z,99.90
2023-03-27T06:36:50.038Z,99.90
2023-03-27T06:39:19.253Z,99.90
2023-03-27T06:41:47.825Z,99.90
2023-03-27T06:44:16.718Z,99.90
2023-03-27T06:46:45.910Z,99.90
2023-03-27T06:49:16.355Z,99.90
2023-03-27T06:51:44.770Z,99.90
2023-03-27T06:54:14.549Z,99.90
2023-03-27T06:56:44.339Z,99.90
2023-03-27T06:59:13.369Z,99.90
2023-03-27T07:01:41.896Z,99.90
2023-03-27T07:04:10.799Z,99.90
2023-03-27T07:06:40.656Z,99.90
2023-03-27T07:09:09.587Z,99.90
2023-03-27T07:11:38.116Z,99.90
2023-03-27T07:14:06.663Z,99.90
2023-03-27T07:16:35.214Z,99.90
2023-03-27T07:19:05.819Z,99.90
2023-03-27T07:21:35.671Z,99.90
2023-03-27T07:24:05.821Z,99.90
2023-03-27T07:26:34.730Z,99.90
2023-03-27T07:29:03.959Z,99.90
2023-03-27T07:31:51.582Z,99.90
2023-03-27T07:34:21.664Z,99.90
2023-03-27T07:36:50.639Z,99.90
2023-03-27T07:39:20.565Z,99.90
2023-03-27T07:41:48.987Z,99.90
2023-03-27T07:44:17.602Z,99.90
2023-03-27T07:46:46.128Z,99.90
2023-03-27T07:49:14.807Z,99.90
2023-03-27T07:51:43.309Z,99.90
2023-03-27T07:54:13.393Z,99.90
2023-03-27T07:56:43.450Z,99.90
2023-03-27T07:59:12.399Z,99.90
2023-03-27T08:01:41.527Z,99.90
2023-03-27T08:04:10.275Z,99.90
2023-03-27T08:06:39.060Z,99.90
2023-03-27T08:09:08.505Z,99.90
2023-03-27T08:11:37.550Z,99.90
2023-03-27T08:14:07.855Z,99.90
2023-03-27T08:16:37.252Z,99.90
2023-03-27T08:19:06.564Z,99.90
2023-03-27T08:21:35.389Z,99.90
2023-03-27T08:24:04.839Z,99.90
2023-03-27T08:26:33.375Z,99.90
2023-03-27T08:29:01.876Z,99.90
2023-03-27T08:31:31.960Z,99.90
2023-03-27T08:34:00.578Z,99.90
2023-03-27T08:36:29.303Z,99.90
2023-03-27T08:38:58.849Z,99.90
2023-03-27T08:41:30.703Z,99.90
2023-03-27T08:44:01.970Z,99.90
2023-03-27T08:46:36.451Z,98.40
2023-03-27T08:49:08.277Z,98.90
2023-03-27T08:51:40.456Z,99.90
2023-03-27T08:54:10.866Z,99.90
2023-03-27T08:56:39.598Z,99.90
2023-03-27T08:59:16.175Z,99.90
2023-03-27T09:01:53.150Z,99.70
2023-03-27T09:04:37.348Z,96.90
2023-03-27T09:07:08.500Z,94.50
2023-03-27T09:09:44.965Z,91.30
2023-03-27T09:12:29.740Z,93.30
2023-03-27T09:15:01.184Z,92.80
2023-03-27T09:17:35.270Z,92.40
2023-03-27T09:20:08.833Z,91.80
2023-03-27T09:22:43.952Z,89.20
2023-03-27T09:25:21.121Z,90.40
2023-03-27T09:27:50.734Z,89.50
2023-03-27T09:30:22.558Z,89.40
2023-03-27T09:32:54.827Z,90.40
2023-03-27T09:35:24.055Z,91.00
2023-03-27T09:37:58.582Z,92.40
2023-03-27T09:40:31.062Z,92.40
2023-03-27T09:43:04.477Z,92.70
2023-03-27T09:45:33.070Z,92.70
2023-03-27T09:48:04.370Z,91.90
2023-03-27T09:50:38.857Z,91.90
2023-03-27T09:53:12.716Z,90.20
2023-03-27T09:55:52.909Z,90.60
2023-03-27T09:58:30.605Z,89.00
2023-03-27T10:01:15.727Z,86.80
2023-03-27T10:03:49.878Z,87.50
2023-03-27T10:06:26.534Z,87.80
2023-03-27T10:08:55.833Z,86.80
2023-03-27T10:11:28.335Z,88.30
2023-03-27T10:13:56.948Z,87.30
2023-03-27T10:16:25.817Z,86.80
2023-03-27T10:18:57.895Z,85.90
2023-03-27T10:21:29.492Z,88.60
2023-03-27T10:24:04.160Z,91.70
2023-03-27T10:26:34.223Z,93.10
2023-03-27T10:29:14.718Z,92.40
2023-03-27T10:31:51.064Z,93.10
2023-03-27T10:34:36.668Z,91.90
2023-03-27T10:37:20.407Z,91.60
2023-03-27T10:39:49.047Z,89.80
2023-03-27T10:42:18.350Z,90.30
2023-03-27T10:44:48.869Z,87.50
2023-03-27T10:47:22.158Z,89.10
2023-03-27T10:49:57.191Z,89.40
2023-03-27T10:52:28.885Z,83.20
2023-03-27T10:55:09.626Z,79.10
2023-03-27T10:57:38.652Z,81.50
2023-03-27T11:00:13.683Z,85.10
2023-03-27T11:02:47.645Z,80.40
2023-03-27T11:05:19.547Z,68.60
2023-03-27T11:07:51.621Z,68.50
2023-03-27T11:10:22.699Z,65.70
2023-03-27T11:12:55.251Z,65.40
2023-03-27T11:15:26.376Z,65.80
2023-03-27T11:17:58.859Z,71.50
2023-03-27T11:20:32.394Z,67.70
2023-03-27T11:23:05.873Z,62.80
2023-03-27T11:25:39.532Z,67.90
2023-03-27T11:28:22.820Z,65.50
2023-03-27T11:30:53.539Z,65.80
2023-03-27T11:33:38.519Z,66.10
2023-03-27T11:36:17.657Z,69.00
2023-03-27T11:38:49.636Z,69.40
2023-03-27T11:41:18.109Z,69.80
2023-03-27T11:43:46.560Z,68.10
2023-03-27T11:46:27.512Z,69.10
2023-03-27T11:49:17.184Z,70.60
2023-03-27T11:51:57.639Z,69.60
2023-03-27T11:54:36.688Z,71.00
2023-03-27T11:57:07.213Z,71.00
2023-03-27T11:59:55.439Z,72.80
2023-03-27T12:02:55.130Z,75.50
2023-03-27T12:05:31.990Z,75.90
2023-03-27T12:08:06.859Z,73.20
2023-03-27T12:10:37.076Z,75.20
2023-03-27T12:13:40.745Z,73.10
2023-03-27T12:16:34.878Z,74.10
2023-03-27T12:19:28.546Z,70.40
2023-03-27T12:22:21.031Z,72.00
2023-03-27T12:25:05.650Z,72.90
2023-03-27T12:27:44.830Z,71.20
2023-03-27T12:30:24.149Z,71.80
2023-03-27T12:33:27.393Z,68.80
2023-03-27T12:35:58.714Z,69.30
2023-03-27T12:38:30.393Z,68.30
2023-03-27T12:41:06.781Z,67.70
2023-03-27T12:43:39.804Z,67.10
2023-03-27T12:46:16.468Z,66.70
2023-03-27T12:48:52.776Z,68.30
2023-03-27T12:51:22.417Z,67.20
2023-03-27T12:53:52.585Z,67.90
2023-03-27T12:56:32.253Z,68.10
2023-03-27T12:59:00.863Z,68.10
2023-03-27T13:01:52.272Z,68.50
2023-03-27T13:04:35.707Z,68.20
2023-03-27T13:07:08.630Z,70.20
2023-03-27T13:09:52.878Z,71.40
2023-03-27T13:12:45.177Z,70.60
2023-03-27T13:15:22.042Z,70.50
2023-03-27T13:18:27.050Z,70.40
2023-03-27T13:21:04.343Z,69.00
2023-03-27T13:23:47.284Z,68.80
2023-03-27T13:26:25.915Z,68.10
2023-03-27T13:28:57.860Z,63.10
2023-03-27T13:31:58.049Z,65.50
2023-03-27T13:34:35.150Z,66.40
2023-03-27T13:37:38.068Z,64.30
2023-03-27T13:40:20.566Z,67.20
2023-03-27T13:42:51.758Z,61.90
2023-03-27T13:45:25.371Z,63.00
2023-03-27T13:48:25.678Z,62.40
2023-03-27T13:51:15.332Z,62.00
2023-03-27T13:54:25.677Z,64.30
2023-03-27T13:57:02.077Z,65.30
2023-03-27T14:00:01.109Z,65.00
2023-03-27T14:02:53.327Z,63.80
2023-03-27T14:05:29.718Z,63.20
2023-03-27T14:08:28.958Z,61.30
2023-03-27T14:11:10.529Z,59.20
2023-03-27T14:13:54.994Z,59.00
2023-03-27T14:16:46.111Z,60.40
2023-03-27T14:19:50.337Z,62.40
2023-03-27T14:22:23.588Z,61.30
2023-03-27T14:24:57.053Z,60.40
2023-03-27T14:27:26.463Z,60.50
2023-03-27T14:30:15.532Z,58.70
2023-03-27T14:32:44.391Z,59.80
2023-03-27T14:35:35.920Z,59.60
2023-03-27T14:38:07.679Z,59.00
2023-03-27T14:40:39.380Z,60.00
2023-03-27T14:43:08.282Z,59.50
2023-03-27T14:45:39.273Z,59.90
2023-03-27T14:48:09.518Z,61.00
2023-03-27T14:50:39.730Z,61.60
2023-03-27T14:53:11.285Z,61.10
2023-03-27T14:55:42.525Z,61.50
2023-03-27T14:58:17.992Z,62.00
2023-03-27T15:00:51.431Z,61.70
2023-03-27T15:03:23.052Z,60.20
2023-03-27T15:06:00.721Z,59.50
2023-03-27T15:08:34.097Z,60.80
2023-03-27T15:11:04.358Z,61.80
2023-03-27T15:13:36.474Z,63.30
2023-03-27T15:16:06.672Z,62.80
2023-03-27T15:18:37.927Z,63.80
2023-03-27T15:21:09.934Z,64.90
2023-03-27T15:23:42.497Z,66.00
2023-03-27T15:26:15.135Z,64.70
2023-03-27T15:28:45.146Z,65.50
2023-03-27T15:31:15.920Z,66.40
2023-03-27T15:33:52.560Z,67.60
2023-03-27T15:36:26.622Z,67.90
2023-03-27T15:38:57.337Z,68.00
2023-03-27T15:41:44.042Z,69.00
2023-03-27T15:44:19.929Z,68.70
2023-03-27T15:46:53.202Z,68.70
2023-03-27T15:49:24.190Z,69.40
2023-03-27T15:51:53.473Z,69.80
2023-03-27T15:54:29.570Z,69.10
2023-03-27T15:57:10.352Z,69.40
2023-03-27T15:59:52.596Z,68.30
2023-03-27T16:02:23.241Z,67.60
2023-03-27T16:04:55.052Z,67.10
2023-03-27T16:07:27.228Z,67.50
2023-03-27T16:09:59.769Z,66.80
2023-03-27T16:12:33.046Z,66.10
2023-03-27T16:15:05.752Z,67.50
2023-03-27T16:17:41.150Z,69.00
2023-03-27T16:20:34.670Z,70.10
2023-03-27T16:23:04.235Z,69.90
2023-03-27T16:25:34.182Z,70.90
2023-03-27T16:28:02.985Z,71.60
2023-03-27T16:30:34.381Z,71.40
2023-03-27T16:33:03.114Z,72.00
2023-03-27T16:35:32.579Z,72.00
2023-03-27T16:38:02.043Z,70.60
2023-03-27T16:40:30.796Z,71.80
2023-03-27T16:43:00.588Z,71.90
2023-03-27T16:45:29.054Z,70.90
2023-03-27T16:47:57.635Z,69.80
2023-03-27T16:50:29.070Z,68.90
2023-03-27T16:52:57.617Z,69.90
2023-03-27T16:55:26.117Z,68.80
2023-03-27T16:57:55.563Z,64.90
2023-03-27T17:00:26.733Z,66.30
2023-03-27T17:02:55.544Z,67.70
2023-03-27T17:05:24.320Z,67.90
2023-03-27T17:07:52.771Z,67.80
2023-03-27T17:10:21.327Z,69.90
2023-03-27T17:12:49.775Z,73.10
2023-03-27T17:15:18.356Z,74.30
2023-03-27T17:17:48.946Z,74.40
2023-03-27T17:20:17.731Z,75.60
2023-03-27T17:22:46.724Z,76.80
2023-03-27T17:25:15.965Z,79.10
2023-03-27T17:27:44.408Z,80.50
2023-03-27T17:30:16.084Z,80.50
2023-03-27T17:32:49.327Z,78.20
2023-03-27T17:35:17.925Z,79.00
2023-03-27T17:37:46.544Z,76.60
2023-03-27T17:40:15.335Z,75.00
2023-03-27T17:42:43.792Z,74.30
2023-03-27T17:45:12.821Z,71.90
2023-03-27T17:47:41.677Z,72.20
2023-03-27T17:50:12.096Z,70.90
2023-03-27T17:52:40.612Z,70.90
2023-03-27T17:55:09.708Z,71.90
2023-03-27T17:57:39.426Z,71.70
2023-03-27T18:00:09.765Z,71.70
2023-03-27T18:02:38.810Z,71.90
2023-03-27T18:05:07.883Z,72.00
2023-03-27T18:07:37.752Z,72.00
2023-03-27T18:10:08.516Z,71.30
2023-03-27T18:12:37.141Z,70.80
2023-03-27T18:15:06.558Z,69.70
2023-03-27T18:17:35.935Z,69.10
2023-03-27T18:20:08.851Z,69.20
2023-03-27T18:22:39.012Z,69.30
2023-03-27T18:25:09.147Z,68.90
2023-03-27T18:27:40.142Z,68.80
2023-03-27T18:30:12.275Z,69.20
2023-03-27T18:32:41.503Z,69.90
2023-03-27T18:35:12.911Z,67.10
2023-03-27T18:37:43.554Z,67.20
2023-03-27T18:40:15.080Z,68.50
2023-03-27T18:42:44.918Z,67.20
2023-03-27T18:45:14.635Z,66.70
2023-03-27T18:47:43.566Z,66.40
2023-03-27T18:50:13.317Z,65.50
2023-03-27T18:52:43.305Z,64.40
2023-03-27T18:55:13.149Z,64.60
2023-03-27T18:57:41.629Z,65.20
2023-03-27T19:00:15.066Z,63.70
2023-03-27T19:02:43.643Z,61.20
2023-03-27T19:05:12.983Z,60.60
2023-03-27T19:07:44.746Z,61.00
2023-03-27T19:10:14.061Z,61.00
2023-03-27T19:12:42.558Z,60.40
2023-03-27T19:15:19.866Z,60.80
2023-03-27T19:17:48.989Z,59.90
2023-03-27T19:20:17.763Z,59.80
2023-03-27T19:22:47.617Z,60.00
2023-03-27T19:25:16.723Z,60.30
2023-03-27T19:27:45.340Z,60.90
2023-03-27T19:30:14.998Z,60.60
2023-03-27T19:32:43.574Z,60.50
2023-03-27T19:35:12.324Z,60.00
2023-03-27T19:37:41.733Z,60.40
2023-03-27T19:40:13.173Z,61.10
2023-03-27T19:42:42.532Z,60.30
2023-03-27T19:45:11.575Z,59.60
2023-03-27T19:47:40.165Z,61.00
2023-03-27T19:50:09.766Z,61.00
2023-03-27T19:52:38.797Z,62.00
2023-03-27T19:55:07.911Z,62.40
2023-03-27T19:57:37.827Z,63.90
2023-03-27T20:00:10.781Z,64.10
2023-03-27T20:02:39.590Z,64.50
2023-03-27T20:05:09.304Z,65.30
2023-03-27T20:07:37.832Z,65.40
2023-03-27T20:10:07.412Z,65.00
2023-03-27T20:12:37.322Z,66.10
2023-03-27T20:15:12.061Z,66.80
2023-03-27T20:17:41.411Z,67.40
2023-03-27T20:20:12.144Z,66.70
2023-03-27T20:22:54.256Z,66.20
2023-03-27T20:25:25.477Z,66.50
2023-03-27T20:27:56.285Z,67.10
2023-03-27T20:30:24.873Z,67.90
2023-03-27T20:32:53.533Z,68.40
2023-03-27T20:35:24.620Z,68.80
2023-03-27T20:37:57.796Z,68.00
2023-03-27T20:40:26.843Z,68.20
2023-03-27T20:43:03.455Z,67.70
2023-03-27T20:45:32.310Z,67.90
2023-03-27T20:48:04.269Z,67.90
2023-03-27T20:50:36.241Z,68.30
2023-03-27T20:53:05.868Z,67.60
2023-03-27T20:55:41.405Z,68.60
2023-03-27T20:58:16.747Z,69.60
2023-03-27T21:00:45.260Z,69.20
2023-03-27T21:03:13.734Z,68.50
2023-03-27T21:05:42.304Z,68.00
2023-03-27T21:08:10.744Z,68.70
2023-03-27T21:10:39.762Z,68.00
2023-03-27T21:13:08.503Z,68.30
2023-03-27T21:15:38.480Z,67.60
2023-03-27T21:18:07.093Z,67.90
2023-03-27T21:20:35.655Z,68.00
2023-03-27T21:23:04.211Z,68.40
2023-03-27T21:25:34.657Z,69.80
2023-03-27T21:28:03.169Z,71.70
2023-03-27T21:30:46.911Z,73.50
2023-03-27T21:33:18.168Z,74.30
2023-03-27T21:35:47.527Z,74.40
2023-03-27T21:38:17.633Z,73.50
2023-03-27T21:40:46.926Z,74.00
2023-03-27T21:43:15.680Z,74.90
2023-03-27T21:45:44.374Z,75.60
2023-03-27T21:48:13.879Z,75.70
2023-03-27T21:50:43.742Z,76.00
2023-03-27T21:53:13.476Z,76.70
2023-03-27T21:55:42.551Z,77.80
2023-03-27T21:58:11.109Z,78.90
2023-03-27T22:00:39.588Z,79.60
2023-03-27T22:03:08.088Z,80.00
2023-03-27T22:05:37.835Z,79.90
2023-03-27T22:08:07.991Z,80.50
2023-03-27T22:10:37.538Z,81.30
2023-03-27T22:13:06.656Z,81.80
2023-03-27T22:15:35.176Z,81.90
2023-03-27T22:18:03.701Z,82.00
2023-03-27T22:20:32.276Z,81.80
2023-03-27T22:23:00.864Z,81.90
2023-03-27T22:25:30.894Z,82.20
2023-03-27T22:28:01.319Z,81.80
2023-03-27T22:30:30.915Z,80.80
2023-03-27T22:32:59.487Z,81.50
2023-03-27T22:35:28.060Z,81.30
2023-03-27T22:37:56.485Z,81.50
2023-03-27T22:40:24.996Z,79.70
2023-03-27T22:42:54.841Z,79.00
2023-03-27T22:45:23.244Z,79.70
2023-03-27T22:47:51.702Z,81.50
2023-03-27T22:50:20.289Z,82.20
2023-03-27T22:52:48.761Z,81.90
2023-03-27T22:55:17.366Z,83.30
2023-03-27T22:57:45.859Z,84.20
2023-03-27T23:00:17.274Z,85.50
2023-03-27T23:02:45.812Z,86.80
2023-03-27T23:05:14.460Z,88.10
2023-03-27T23:07:42.899Z,89.20
2023-03-27T23:10:11.680Z,90.10
2023-03-27T23:12:40.301Z,90.50
2023-03-27T23:15:09.997Z,91.10
2023-03-27T23:17:39.926Z,92.40
2023-03-27T23:20:09.294Z,93.20
2023-03-27T23:22:38.453Z,93.70
2023-03-27T23:25:07.726Z,94.20
2023-03-27T23:27:36.173Z,94.40
2023-03-27T23:30:05.134Z,94.70
2023-03-27T23:32:37.578Z,95.30
2023-03-27T23:35:08.526Z,96.00
2023-03-27T23:37:36.998Z,96.20
2023-03-27T23:40:06.451Z,96.30
2023-03-27T23:42:36.196Z,96.40
2023-03-27T23:45:04.847Z,96.50
2023-03-27T23:47:33.296Z,97.40
2023-03-27T23:50:04.392Z,97.00
2023-03-27T23:52:34.216Z,95.60
2023-03-27T23:55:02.695Z,93.50
2023-03-27T23:57:31.130Z,93.60
2023-03-27T23:59:59.630Z,93.80
